WetterOnline ( https://www.wetteronline.de )

Wetter aktuell Isny

Aktuelles Wetter: Leutkirch-Herlazhofen (671m)

6-stündlich | Neueste Meldungen
Ortszeit Temperatur Wetter
Sa, 25.05. 20:00 13.6° C bewölkt
Sa, 25.05. 14:00 16.4° C wolkenlos
Sa, 25.05. 8:00 8.8° C Nebel
Sa, 25.05. 2:00 7.2° C Nebel
Fr, 24.05. 20:00 10.8° C leichter Regen
Fr, 24.05. 14:00 17.0° C leicht bewölkt
Fr, 24.05. 8:00 11.1° C bedeckt
Fr, 24.05. 2:00 9.5° C bedeckt
Ortszeit Temperatur Wetter
Sa, 25.05. 23:00 8.7° C fast wolkenlos
Sa, 25.05. 22:50 8.7° C fast wolkenlos
Sa, 25.05. 22:40 8.9° C leicht bewölkt
Sa, 25.05. 22:30 9.2° C leicht bewölkt
Sa, 25.05. 22:20 9.2° C leicht bewölkt
Sa, 25.05. 22:10 9.2° C leicht bewölkt
Sa, 25.05. 22:00 9.3° C leicht bewölkt
Sa, 25.05. 21:30 10.6° C leicht bewölkt
Sa, 25.05. 21:00 11.6° C wolkig
Sa, 25.05. 20:30 13.2° C wolkig
Sa, 25.05. 20:00 13.6° C bewölkt
Ortszeit Relative Feuchte Sichtweite
Sa, 25.05. 20:00 86% 60 km
Sa, 25.05. 14:00 58% >70 km
Sa, 25.05. 8:00 99% 9 km
Sa, 25.05. 2:00 100% 17 km
Fr, 24.05. 20:00 93% 18 km
Fr, 24.05. 14:00 61% >70 km
Fr, 24.05. 8:00 87% >70 km
Fr, 24.05. 2:00 94% 40 km
Ortszeit Relative Feuchte Sichtweite
Sa, 25.05. 23:00 94% 60 km
Sa, 25.05. 22:50 94% -
Sa, 25.05. 22:40 93% -
Sa, 25.05. 22:30 96% 65 km
Sa, 25.05. 22:20 96% -
Sa, 25.05. 22:10 97% -
Sa, 25.05. 22:00 95% 60 km
Sa, 25.05. 21:30 96% 50 km
Sa, 25.05. 21:00 95% >70 km
Sa, 25.05. 20:30 89% 55 km
Sa, 25.05. 20:00 86% 60 km
Ortszeit Niederschlagsmenge Niederschlagsart
Sa, 25.05. 20:00 2 l/m2 in 12 Std. Regen
Sa, 25.05. 14:00 0.1 l/m2 in 6 Std. Regen
Sa, 25.05. 8:00 3 l/m2 in 12 Std. -
Sa, 25.05. 2:00 3 l/m2 in 6 Std. Regen
Fr, 24.05. 20:00 5 l/m2 in 12 Std. Regen
Fr, 24.05. 14:00 0.0 l/m2 in 6 Std. -
Fr, 24.05. 8:00 0.1 l/m2 in 12 Std. Regen
Fr, 24.05. 2:00 0.0 l/m2 in 6 Std. -
Ortszeit Niederschlagsmenge Niederschlagsart
Sa, 25.05. 23:00 0.0 l/m2 in 1 Std. -
Sa, 25.05. 22:50 keine Meldung -
Sa, 25.05. 22:40 keine Meldung -
Sa, 25.05. 22:30 0.0 l/m2 in 30 Min -
Sa, 25.05. 22:20 keine Meldung -
Sa, 25.05. 22:10 keine Meldung -
Sa, 25.05. 22:00 0.0 l/m2 in 1 Std. -
Sa, 25.05. 21:30 0.0 l/m2 in 30 Min -
Sa, 25.05. 21:00 0.0 l/m2 in 1 Std. -
Sa, 25.05. 20:30 0.0 l/m2 in 30 Min -
Sa, 25.05. 20:00 <0.05 l/m2 in 1 Std. Regen
Ortszeit Stärke Spitze Richtung
km/h Bft. km/h Grad Sektor
Sa, 25.05. 20:00 4 1 22 230° SW
Sa, 25.05. 14:00 7 2 18 270° W
Sa, 25.05. 8:00 9 2 17 220° SW
Sa, 25.05. 2:00 4 1 22 130° SO
Fr, 24.05. 20:00 11 2 47 210° SW
Fr, 24.05. 14:00 7 2 22 260° W
Fr, 24.05. 8:00 9 2 17 200° S
Fr, 24.05. 2:00 7 2 18 210° SW
Ortszeit Stärke Spitze Richtung
km/h Bft. km/h Grad Sektor
Sa, 25.05. 23:00 6 1 7 130° SO
Sa, 25.05. 22:50 6 1 - 130° SO
Sa, 25.05. 22:40 6 1 - 130° SO
Sa, 25.05. 22:30 4 1 7 160° S
Sa, 25.05. 22:20 4 1 - 160° S
Sa, 25.05. 22:10 4 1 - 200° S
Sa, 25.05. 22:00 4 1 7 170° S
Sa, 25.05. 21:30 4 1 7 160° S
Sa, 25.05. 21:00 4 1 7 100° O
Sa, 25.05. 20:30 4 1 7 220° SW
Sa, 25.05. 20:00 4 1 14 230° SW
Ortszeit Untergrenze Bedeckung Gattung
total tief tief mittel hoch
Sa, 25.05. 20:00 2700 m 8/8 4/8 - - -
Sa, 25.05. 14:00 - 0/8 0/8 - - -
Sa, 25.05. 8:00 30 m 8/8 8/8 - - -
Sa, 25.05. 2:00 - 0/8 0/8 - - -
Fr, 24.05. 20:00 390 m 8/8 8/8 - - -
Fr, 24.05. 14:00 960 m 3/8 3/8 - - -
Fr, 24.05. 8:00 1500 m 8/8 8/8 - - -
Fr, 24.05. 2:00 570 m 8/8 8/8 - - -
Ortszeit Bedeckungsgrad in Achtel und Wolkenuntergrenze
Sa, 25.05. 23:00 1(2100m)
Sa, 25.05. 22:50 1(2100m)
Sa, 25.05. 22:40 2
Sa, 25.05. 22:30 3(2100m)
Sa, 25.05. 22:20 3(2100m)
Sa, 25.05. 22:10 2
Sa, 25.05. 22:00 4(2100m)
Sa, 25.05. 21:30 2(1800m)
Sa, 25.05. 21:00 8(7500m)
Sa, 25.05. 20:30 1(3000m) 8(7200m)
Sa, 25.05. 20:00 4(2700m) 6(6000m) 8(6900m)
Ortszeit Luftdruck NN (hPa) Tendenz (hPa in 3 Std.)
Sa, 25.05. 20:00 1018 + 0,2
Sa, 25.05. 14:00 1017 - 0,8
Sa, 25.05. 8:00 1020 + 0,5
Sa, 25.05. 2:00 1020 - 0,4
Fr, 24.05. 20:00 1019 + 2,9
Fr, 24.05. 14:00 1016 - 0,9
Fr, 24.05. 8:00 1019 + 0,2
Fr, 24.05. 2:00 1019 - 0,1
Ortszeit Luftdruck NN (hPa) Tendenz (hPa in 3 Std.)
Sa, 25.05. 23:00 1020 + 0,8
Sa, 25.05. 22:50 1020 keine Meldung
Sa, 25.05. 22:40 1020 keine Meldung
Sa, 25.05. 22:30 1020 + 0,8
Sa, 25.05. 22:20 1020 keine Meldung
Sa, 25.05. 22:10 1020 keine Meldung
Sa, 25.05. 22:00 1020 + 0,7
Sa, 25.05. 21:30 1019 + 0,5
Sa, 25.05. 21:00 1018 + 0,2
Sa, 25.05. 20:30 1018 + 0,5
Sa, 25.05. 20:00 1018 + 0,2
Ortszeit Schneehöhe (cm)
Sa, 25.05. 20:00 0
Sa, 25.05. 14:00 0
Sa, 25.05. 8:00 0
Sa, 25.05. 2:00 0
Fr, 24.05. 20:00 0
Fr, 24.05. 14:00 0
Fr, 24.05. 8:00 0
Fr, 24.05. 2:00 0
Ortszeit Schneehöhe (cm)
Sa, 25.05. 23:00 0
Sa, 25.05. 22:50 0
Sa, 25.05. 22:40 -
Sa, 25.05. 22:30 0
Sa, 25.05. 22:20 0
Sa, 25.05. 22:10 -
Sa, 25.05. 22:00 0
Sa, 25.05. 21:30 0
Sa, 25.05. 21:00 0
Sa, 25.05. 20:30 0
Sa, 25.05. 20:00 0
Link zu dieser Seite / Seite empfehlen

Das Wetter in ...